MOL Maneuver — V7VC5 — position and weather

sailwx.info

Track history (hours):
 
Tides and Currents Weather Stations Pressure Air Temp Water Temp Dewpoint Dewpoint Depression Visibility Wind Speed Wind Dir Waves Ship Positions

MOL Maneuver

Last reported at 2018-Feb-25 10:00 UTC. Time now 2018-Feb-25 10:16 UTC.
Position N 35°36' E 139°46'.

Length 302 m; draft 9.3 m.

Type: Cargo ship. MMSI: 538004086.

Date/timePositionNaut miles runAvg speedWind from/ knotsBaromVisibWave heightAir tempDewpointWater temp
2018-Feb-25 10:00N 35°36' E 139°46'0 0.1
2018-Feb-25 09:30N 35°36' E 139°46'2 3.3
2018-Feb-25 09:00N 35°35' E 139°47'510.5
2018-Feb-25 08:30N 35°32' E 139°52'612.9
2018-Feb-25 08:00N 35°26' E 139°48'612.8
2018-Feb-25 07:30N 35°20' E 139°44'611.7
2018-Feb-25 07:00N 35°15' E 139°47'612.0
2018-Feb-25 06:30N 35°09' E 139°47'3 6.8
2018-Feb-25 06:00N 35°05' E 139°47'4 8.7
2018-Feb-25 05:30N 35°01' E 139°44'611.8
2018-Feb-25 04:59N 34°56' E 139°40'611.7
2018-Feb-25 04:30N 34°51' E 139°37'611.8
2018-Feb-25 04:00N 34°46' E 139°34'712.2
2018-Feb-25 03:26N 34°40' E 139°30'512.2
2018-Feb-25 02:59N 34°37' E 139°25'612.4
2018-Feb-25 02:29N 34°34' E 139°18'612.2
2018-Feb-25 01:59N 34°32' E 139°11'613.3
2018-Feb-25 01:30N 34°30' E 139°03'714.3
2018-Feb-25 01:00N 34°28' E 138°55'915.9
2018-Feb-25 00:27N 34°25' E 138°45'818.1
2018-Feb-25 00:00N 34°21' E 138°37'918.0
2018-Feb-24 23:30N 34°17' E 138°27'917.9
2018-Feb-24 23:00N 34°13' E 138°18'  
2018-Feb-20 11:12N 30°33' E 122°12'417.3
2018-Feb-20 10:59N 30°35' E 122°08'3 0.3
2018-Feb-19 22:55N 30°36' E 122°04'1 2.5
2018-Feb-19 22:25N 30°36' E 122°06'410.1
2018-Feb-19 21:59N 30°34' E 122°10'6 9.9
2018-Feb-19 21:24N 30°33' E 122°17'60 1.3
2018-Feb-18 00:00N 29°36' E 122°36'0 0.0 160 / 161021.3 5.4 12.0 10.0
2018-Feb-17 00:00N 29°36' E 122°36'   030 / 141024.0 5.4 11.0 10.0
Track history (hours):
 
Tides and Currents Weather Stations Pressure Air Temp Water Temp Dewpoint Dewpoint Depression Visibility Wind Speed Wind Dir Waves Ship Positions

MOL Maneuver

Last reported at 2018-Feb-25 10:00 UTC. Time now 2018-Feb-25 10:16 UTC.
Position N 35°36' E 139°46'.

Length 302 m; draft 9.3 m.

Type: Cargo ship. MMSI: 538004086.

Date/timePositionNaut miles runAvg speedWind from/ knotsBaromVisibWave heightAir tempDewpointWater temp
2018-Feb-25 10:00N 35°36' E 139°46'0 0.1
2018-Feb-25 09:30N 35°36' E 139°46'2 3.3
2018-Feb-25 09:00N 35°35' E 139°47'510.5
2018-Feb-25 08:30N 35°32' E 139°52'612.9
2018-Feb-25 08:00N 35°26' E 139°48'612.8
2018-Feb-25 07:30N 35°20' E 139°44'611.7
2018-Feb-25 07:00N 35°15' E 139°47'612.0
2018-Feb-25 06:30N 35°09' E 139°47'3 6.8
2018-Feb-25 06:00N 35°05' E 139°47'4 8.7
2018-Feb-25 05:30N 35°01' E 139°44'611.8
2018-Feb-25 04:59N 34°56' E 139°40'611.7
2018-Feb-25 04:30N 34°51' E 139°37'611.8
2018-Feb-25 04:00N 34°46' E 139°34'712.2
2018-Feb-25 03:26N 34°40' E 139°30'512.2
2018-Feb-25 02:59N 34°37' E 139°25'612.4
2018-Feb-25 02:29N 34°34' E 139°18'612.2
2018-Feb-25 01:59N 34°32' E 139°11'613.3
2018-Feb-25 01:30N 34°30' E 139°03'714.3
2018-Feb-25 01:00N 34°28' E 138°55'915.9
2018-Feb-25 00:27N 34°25' E 138°45'818.1
2018-Feb-25 00:00N 34°21' E 138°37'918.0
2018-Feb-24 23:30N 34°17' E 138°27'917.9
2018-Feb-24 23:00N 34°13' E 138°18'  
2018-Feb-20 11:12N 30°33' E 122°12'417.3
2018-Feb-20 10:59N 30°35' E 122°08'3 0.3
2018-Feb-19 22:55N 30°36' E 122°04'1 2.5
2018-Feb-19 22:25N 30°36' E 122°06'410.1
2018-Feb-19 21:59N 30°34' E 122°10'6 9.9
2018-Feb-19 21:24N 30°33' E 122°17'60 1.3
2018-Feb-18 00:00N 29°36' E 122°36'0 0.0 160 / 161021.3 5.4 12.0 10.0
2018-Feb-17 00:00N 29°36' E 122°36'   030 / 141024.0 5.4 11.0 10.0

Dump ship's entire track history